createdAt,value
2023-11-30T00:00:16.179Z,0.50
2023-11-30T00:02:46.610Z,0.50
2023-11-30T00:05:18.727Z,0.40
2023-11-30T00:07:49.871Z,0.20
2023-11-30T00:10:22.813Z,0.30
2023-11-30T00:12:55.723Z,0.30
2023-11-30T00:15:26.028Z,0.40
2023-11-30T00:17:57.622Z,0.40
2023-11-30T00:20:27.886Z,0.50
2023-11-30T00:22:58.131Z,0.50
2023-11-30T00:25:28.656Z,0.60
2023-11-30T00:28:01.510Z,0.60
2023-11-30T00:30:31.822Z,0.70
2023-11-30T00:33:02.265Z,0.70
2023-11-30T00:35:32.530Z,0.90
2023-11-30T00:38:02.802Z,1.00
2023-11-30T00:40:33.013Z,1.10
2023-11-30T00:43:05.939Z,1.00
2023-11-30T00:45:36.432Z,0.90
2023-11-30T00:48:07.421Z,0.90
2023-11-30T00:50:37.800Z,1.00
2023-11-30T00:53:08.053Z,0.90
2023-11-30T00:55:38.306Z,0.80
2023-11-30T00:58:11.141Z,0.80
2023-11-30T01:00:41.391Z,0.90
2023-11-30T01:03:11.687Z,0.90
2023-11-30T01:05:41.993Z,0.90
2023-11-30T01:08:12.229Z,1.10
2023-11-30T01:10:50.134Z,1.20
2023-11-30T01:13:23.017Z,1.20
2023-11-30T01:15:53.310Z,1.20
2023-11-30T01:18:23.697Z,1.20
2023-11-30T01:20:54.133Z,1.30
2023-11-30T01:23:24.370Z,1.40
2023-11-30T01:25:54.595Z,1.40
2023-11-30T01:28:27.472Z,1.50
2023-11-30T01:30:57.786Z,1.60
2023-11-30T01:33:28.135Z,1.70
2023-11-30T01:35:58.432Z,1.80
2023-11-30T01:38:28.688Z,1.90
2023-11-30T01:40:58.935Z,2.00
2023-11-30T01:43:32.583Z,2.00
2023-11-30T01:46:04.382Z,2.00
2023-11-30T01:48:37.618Z,1.90
2023-11-30T01:51:12.025Z,2.00
2023-11-30T01:53:44.753Z,1.90
2023-11-30T01:56:16.383Z,1.90
2023-11-30T01:58:49.538Z,1.90
2023-11-30T02:01:20.371Z,2.00
2023-11-30T02:03:50.966Z,2.10
2023-11-30T02:06:21.498Z,2.20
2023-11-30T02:08:53.127Z,2.20
2023-11-30T02:11:23.461Z,2.10
2023-11-30T02:13:58.346Z,2.10
2023-11-30T02:16:28.600Z,2.10
2023-11-30T02:18:58.984Z,2.10
2023-11-30T02:21:29.371Z,2.10
2023-11-30T02:24:03.343Z,2.00
2023-11-30T02:26:33.713Z,2.00
2023-11-30T02:29:03.972Z,2.00
2023-11-30T02:31:34.316Z,2.10
2023-11-30T02:34:06.966Z,2.10
2023-11-30T02:36:37.188Z,2.30
2023-11-30T02:39:10.815Z,2.40
2023-11-30T02:41:41.087Z,2.50
2023-11-30T02:44:12.780Z,2.40
2023-11-30T02:46:43.084Z,2.40
2023-11-30T02:49:13.367Z,2.40
2023-11-30T02:51:46.202Z,2.20
2023-11-30T02:54:19.118Z,2.10
2023-11-30T02:56:49.386Z,2.00
2023-11-30T02:59:19.621Z,2.00
2023-11-30T03:01:53.203Z,2.00
2023-11-30T03:04:23.838Z,2.00
2023-11-30T03:06:54.182Z,2.00
2023-11-30T03:09:27.132Z,2.00
2023-11-30T03:11:57.408Z,2.00
2023-11-30T03:14:27.673Z,1.90
2023-11-30T03:16:57.898Z,1.90
2023-11-30T03:19:28.161Z,1.90
2023-11-30T03:21:58.463Z,1.90
2023-11-30T03:24:31.351Z,2.00
2023-11-30T03:27:01.631Z,2.30
2023-11-30T03:29:31.895Z,2.30
2023-11-30T03:32:02.217Z,2.30
2023-11-30T03:34:32.514Z,2.30
2023-11-30T03:37:02.928Z,2.20
2023-11-30T03:39:36.112Z,2.30
2023-11-30T03:42:06.821Z,2.30
2023-11-30T03:44:37.160Z,2.30
2023-11-30T03:47:07.924Z,2.30
2023-11-30T03:49:38.161Z,2.30
2023-11-30T03:52:09.139Z,2.30
2023-11-30T03:54:41.954Z,2.50
2023-11-30T03:57:12.303Z,2.50
2023-11-30T03:59:43.719Z,2.50
2023-11-30T04:02:14.143Z,2.40
2023-11-30T04:04:44.608Z,2.40
2023-11-30T04:07:15.158Z,2.50
2023-11-30T04:09:48.786Z,2.50
2023-11-30T04:12:19.085Z,2.50
2023-11-30T04:14:49.404Z,2.60
2023-11-30T04:17:19.671Z,2.70
2023-11-30T04:19:49.924Z,2.60
2023-11-30T04:22:20.714Z,2.60
2023-11-30T04:24:53.591Z,2.50
2023-11-30T04:27:23.826Z,2.50
2023-11-30T04:29:54.087Z,2.60
2023-11-30T04:32:24.429Z,2.60
2023-11-30T04:34:54.710Z,2.70
2023-11-30T04:37:24.933Z,2.80
2023-11-30T04:39:59.010Z,2.90
2023-11-30T04:42:29.351Z,3.10
2023-11-30T04:44:59.766Z,3.10
2023-11-30T04:47:30.079Z,2.90
2023-11-30T04:50:00.389Z,2.80
2023-11-30T04:52:30.652Z,2.80
2023-11-30T04:55:03.608Z,2.70
2023-11-30T04:57:33.945Z,2.60
2023-11-30T05:00:06.627Z,2.80
2023-11-30T05:02:41.715Z,2.90
2023-11-30T05:05:12.731Z,2.80
2023-11-30T05:07:42.998Z,2.90
2023-11-30T05:10:16.319Z,3.00
2023-11-30T05:12:47.316Z,3.00
2023-11-30T05:15:17.653Z,2.90
2023-11-30T05:17:47.902Z,2.90
2023-11-30T05:20:18.334Z,2.80
2023-11-30T05:22:48.554Z,2.50
2023-11-30T05:25:21.582Z,2.40
2023-11-30T05:27:54.550Z,2.30
2023-11-30T05:30:27.613Z,2.20
2023-11-30T05:32:58.113Z,2.10
2023-11-30T05:35:28.509Z,2.10
2023-11-30T05:37:58.981Z,2.10
2023-11-30T05:40:31.832Z,2.10
2023-11-30T05:43:02.130Z,2.30
2023-11-30T05:45:32.390Z,2.30
2023-11-30T05:48:02.794Z,2.30
2023-11-30T05:50:33.682Z,2.40
2023-11-30T05:53:07.666Z,2.40
2023-11-30T05:55:40.525Z,2.40
2023-11-30T05:58:10.808Z,2.40
2023-11-30T06:00:41.106Z,2.40
2023-11-30T06:03:11.408Z,2.40
2023-11-30T06:05:41.721Z,2.40
2023-11-30T06:08:14.624Z,2.40
2023-11-30T06:10:47.653Z,2.30
2023-11-30T06:13:17.963Z,2.40
2023-11-30T06:15:48.272Z,2.40
2023-11-30T06:18:18.634Z,2.40
2023-11-30T06:20:48.935Z,2.30
2023-11-30T06:23:19.242Z,2.30
2023-11-30T06:25:52.632Z,2.20
2023-11-30T06:28:22.989Z,2.30
2023-11-30T06:30:53.237Z,2.30
2023-11-30T06:33:23.480Z,2.30
2023-11-30T06:35:53.782Z,2.30
2023-11-30T06:38:24.070Z,2.40
2023-11-30T06:40:56.901Z,2.40
2023-11-30T06:43:29.673Z,2.40
2023-11-30T06:45:59.960Z,2.50
2023-11-30T06:48:30.256Z,2.40
2023-11-30T06:51:00.534Z,2.40
2023-11-30T06:53:30.822Z,2.40
2023-11-30T06:56:03.628Z,2.50
2023-11-30T06:58:33.891Z,2.50
2023-11-30T07:01:04.438Z,2.50
2023-11-30T07:03:42.567Z,2.40
2023-11-30T07:06:14.449Z,2.40
2023-11-30T07:08:44.734Z,2.40
2023-11-30T07:11:25.152Z,2.50
2023-11-30T07:13:55.404Z,2.50
2023-11-30T07:16:25.675Z,2.50
2023-11-30T07:18:55.971Z,2.60
2023-11-30T07:21:27.885Z,2.60
2023-11-30T07:23:58.385Z,2.60
2023-11-30T07:26:31.217Z,2.60
2023-11-30T07:29:01.589Z,2.60
2023-11-30T07:31:31.903Z,2.60
2023-11-30T07:34:02.294Z,2.60
2023-11-30T07:36:32.568Z,2.50
2023-11-30T07:39:02.890Z,2.50
2023-11-30T07:41:35.728Z,2.60
2023-11-30T07:44:07.078Z,2.60
2023-11-30T07:46:37.368Z,2.70
2023-11-30T07:49:07.677Z,2.80
2023-11-30T07:51:37.980Z,3.00
2023-11-30T07:54:09.581Z,3.10
2023-11-30T07:56:42.454Z,3.20
2023-11-30T07:59:14.527Z,3.20
2023-11-30T08:01:44.939Z,3.20
2023-11-30T08:04:15.344Z,3.20
2023-11-30T08:06:49.226Z,3.10
2023-11-30T08:09:19.549Z,3.10
2023-11-30T08:11:53.820Z,3.10
2023-11-30T08:14:24.170Z,3.30
2023-11-30T08:16:54.563Z,3.30
2023-11-30T08:19:24.830Z,3.30
2023-11-30T08:21:57.457Z,3.30
2023-11-30T08:24:27.732Z,3.30
2023-11-30T08:27:00.733Z,3.30
2023-11-30T08:29:31.002Z,3.40
2023-11-30T08:32:01.249Z,3.60
2023-11-30T08:34:31.810Z,3.60
2023-11-30T08:37:02.062Z,3.90
2023-11-30T08:39:32.471Z,4.00
2023-11-30T08:42:05.482Z,4.10
2023-11-30T08:44:44.274Z,4.20
2023-11-30T08:47:15.468Z,4.10
2023-11-30T08:49:53.014Z,4.20
2023-11-30T08:52:24.477Z,4.20
2023-11-30T08:54:55.313Z,4.20
2023-11-30T08:57:28.206Z,3.90
2023-11-30T08:59:59.515Z,3.80
2023-11-30T09:02:32.085Z,3.70
2023-11-30T09:05:02.670Z,3.50
2023-11-30T09:07:34.000Z,3.40
2023-11-30T09:10:05.846Z,3.30
2023-11-30T09:12:38.877Z,3.20
2023-11-30T09:15:17.318Z,3.20
2023-11-30T09:17:49.624Z,3.20
2023-11-30T09:20:21.443Z,3.40
2023-11-30T09:22:52.191Z,3.60
2023-11-30T09:25:22.585Z,3.70
2023-11-30T09:27:55.969Z,3.70
2023-11-30T09:30:28.557Z,3.70
2023-11-30T09:33:01.685Z,3.70
2023-11-30T09:35:31.891Z,3.80
2023-11-30T09:38:03.024Z,3.80
2023-11-30T09:40:35.254Z,3.70
2023-11-30T09:43:09.979Z,3.70
2023-11-30T09:45:42.515Z,3.80
2023-11-30T09:48:12.900Z,3.80
2023-11-30T09:50:43.431Z,4.00
2023-11-30T09:53:14.268Z,4.00
2023-11-30T09:55:44.695Z,4.00
2023-11-30T09:58:17.654Z,3.90
2023-11-30T10:00:47.949Z,4.00
2023-11-30T10:03:18.381Z,4.00
2023-11-30T10:05:48.656Z,3.90
2023-11-30T10:08:23.819Z,3.80
2023-11-30T10:10:54.106Z,4.00
2023-11-30T10:13:31.136Z,3.90
2023-11-30T10:16:02.109Z,4.20
2023-11-30T10:18:35.884Z,4.40
2023-11-30T10:21:06.680Z,4.60
2023-11-30T10:23:37.879Z,4.70
2023-11-30T10:26:10.705Z,4.70
2023-11-30T10:28:44.201Z,4.60
2023-11-30T10:31:19.652Z,4.60
2023-11-30T10:33:59.136Z,4.40
2023-11-30T10:36:31.478Z,4.40
2023-11-30T10:39:12.405Z,4.30
2023-11-30T10:41:53.602Z,4.20
2023-11-30T10:44:32.094Z,4.40
2023-11-30T10:47:05.843Z,4.30
2023-11-30T10:49:36.293Z,4.40
2023-11-30T10:52:09.573Z,4.40
2023-11-30T10:54:47.875Z,4.40
2023-11-30T10:57:19.492Z,4.40
2023-11-30T11:00:01.026Z,4.30
2023-11-30T11:02:40.895Z,4.30
2023-11-30T11:05:16.997Z,4.40
2023-11-30T11:07:52.458Z,4.30
2023-11-30T11:10:28.951Z,4.40
2023-11-30T11:13:04.222Z,4.60
2023-11-30T11:15:39.250Z,4.60
2023-11-30T11:18:09.549Z,5.00
2023-11-30T11:20:40.979Z,5.10
2023-11-30T11:23:14.023Z,5.00
2023-11-30T11:25:50.188Z,4.90
2023-11-30T11:28:24.474Z,4.80
2023-11-30T11:30:57.858Z,4.60
2023-11-30T11:33:35.729Z,4.60
2023-11-30T11:36:08.458Z,4.60
2023-11-30T11:38:41.081Z,4.60
2023-11-30T11:41:11.945Z,4.40
2023-11-30T11:43:43.363Z,4.30
2023-11-30T11:46:16.324Z,4.20
2023-11-30T11:48:50.133Z,4.40
2023-11-30T11:51:20.732Z,4.30
2023-11-30T11:53:51.098Z,4.20
2023-11-30T11:56:21.389Z,4.40
2023-11-30T11:58:53.856Z,4.80
2023-11-30T12:01:26.831Z,4.70
2023-11-30T12:03:58.016Z,4.70
2023-11-30T12:06:31.867Z,4.80
2023-11-30T12:09:14.303Z,4.90
2023-11-30T12:11:44.911Z,4.80
2023-11-30T12:14:15.217Z,4.80
2023-11-30T12:16:48.096Z,4.80
2023-11-30T12:19:21.362Z,4.90
2023-11-30T12:21:51.721Z,4.90
2023-11-30T12:24:23.111Z,5.00
2023-11-30T12:26:53.927Z,5.00
2023-11-30T12:29:24.154Z,5.00
2023-11-30T12:31:56.684Z,4.90
2023-11-30T12:34:27.265Z,4.90
2023-11-30T12:36:57.676Z,4.90
2023-11-30T12:39:27.982Z,4.90
2023-11-30T12:41:58.241Z,4.80
2023-11-30T12:44:28.528Z,4.70
2023-11-30T12:47:01.674Z,4.70
2023-11-30T12:49:33.582Z,4.70
2023-11-30T12:52:07.094Z,4.70
2023-11-30T12:57:40.212Z,5.00
2023-11-30T13:00:18.009Z,5.10
2023-11-30T13:02:50.889Z,5.00
2023-11-30T13:05:22.484Z,5.00
2023-11-30T13:07:55.683Z,5.00
2023-11-30T13:10:28.756Z,4.90
2023-11-30T13:12:59.095Z,4.90
2023-11-30T13:15:29.634Z,5.00
2023-11-30T13:18:02.711Z,4.90
2023-11-30T13:20:32.936Z,5.00
2023-11-30T13:23:03.188Z,5.10
2023-11-30T13:25:34.863Z,5.10
2023-11-30T13:28:06.892Z,5.10
2023-11-30T13:30:37.280Z,5.00
2023-11-30T13:33:10.299Z,5.10
2023-11-30T13:35:41.150Z,4.80
2023-11-30T13:38:11.827Z,4.90
2023-11-30T13:40:42.057Z,4.80
2023-11-30T13:43:12.341Z,4.60
2023-11-30T13:45:42.711Z,4.60
2023-11-30T13:48:42.725Z,4.70
2023-11-30T13:51:14.496Z,4.80
2023-11-30T13:53:44.742Z,4.90
2023-11-30T13:56:15.770Z,4.90
2023-11-30T13:58:46.389Z,4.90
2023-11-30T14:01:16.737Z,4.90
2023-11-30T14:03:49.776Z,4.90
2023-11-30T14:06:20.292Z,4.90
2023-11-30T14:08:50.585Z,4.90
2023-11-30T14:11:21.873Z,4.90
2023-11-30T14:13:52.300Z,4.90
2023-11-30T14:16:22.637Z,4.90
2023-11-30T14:18:56.098Z,4.80
2023-11-30T14:21:26.471Z,4.80
2023-11-30T14:24:16.006Z,4.90
2023-11-30T14:26:46.323Z,5.00
2023-11-30T14:29:17.121Z,5.10
2023-11-30T14:31:48.809Z,5.10
2023-11-30T14:34:21.716Z,4.90
2023-11-30T14:36:54.408Z,4.80
2023-11-30T14:39:30.874Z,5.10
2023-11-30T14:42:01.192Z,5.00
2023-11-30T14:44:31.908Z,4.90
2023-11-30T14:47:02.152Z,4.60
2023-11-30T14:49:35.045Z,4.50
2023-11-30T14:52:05.294Z,4.50
2023-11-30T14:54:35.597Z,4.80
2023-11-30T14:57:10.398Z,4.60
2023-11-30T14:59:41.352Z,4.60
2023-11-30T15:02:11.682Z,4.60
2023-11-30T15:04:44.640Z,4.50
2023-11-30T15:07:14.894Z,4.30
2023-11-30T15:09:46.884Z,4.20
2023-11-30T15:12:20.029Z,4.50
2023-11-30T15:14:50.342Z,4.60
2023-11-30T15:17:20.617Z,4.70
2023-11-30T15:19:55.321Z,4.70
2023-11-30T15:22:25.676Z,4.60
2023-11-30T15:24:55.968Z,4.70
2023-11-30T15:27:29.072Z,4.70
2023-11-30T15:29:59.329Z,4.60
2023-11-30T15:32:29.569Z,4.40
2023-11-30T15:35:04.197Z,4.10
2023-11-30T15:37:36.509Z,4.00
2023-11-30T15:40:10.388Z,3.90
2023-11-30T15:42:40.759Z,3.80
2023-11-30T15:45:13.934Z,3.80
2023-11-30T15:47:44.723Z,3.70
2023-11-30T15:50:18.013Z,3.70
2023-11-30T15:52:48.490Z,3.70
2023-11-30T15:55:19.065Z,3.70
2023-11-30T15:57:49.900Z,3.70
2023-11-30T16:00:21.730Z,3.60
2023-11-30T16:02:54.738Z,3.60
2023-11-30T16:05:30.269Z,3.60
2023-11-30T16:08:00.578Z,3.60
2023-11-30T16:10:30.814Z,3.70
2023-11-30T16:13:01.096Z,3.80
2023-11-30T16:15:31.378Z,3.80
2023-11-30T16:18:01.703Z,3.70
2023-11-30T16:20:34.564Z,3.60
2023-11-30T16:23:05.349Z,3.50
2023-11-30T16:25:35.607Z,3.40
2023-11-30T16:28:07.958Z,3.40
2023-11-30T16:30:38.242Z,3.30
2023-11-30T16:33:09.161Z,3.30
2023-11-30T16:35:42.140Z,3.20
2023-11-30T16:38:12.510Z,3.10
2023-11-30T16:40:43.769Z,3.00
2023-11-30T16:43:14.016Z,2.90
2023-11-30T16:45:44.582Z,2.80
2023-11-30T16:48:17.021Z,2.90
2023-11-30T16:50:52.035Z,3.00
2023-11-30T16:53:23.211Z,2.90
2023-11-30T16:55:54.350Z,3.00
2023-11-30T16:58:24.634Z,3.00
2023-11-30T17:00:54.881Z,3.00
2023-11-30T17:03:26.876Z,3.00
2023-11-30T17:05:59.953Z,2.90
2023-11-30T17:08:30.246Z,3.00
2023-11-30T17:11:01.895Z,3.00
2023-11-30T17:13:32.562Z,3.00
2023-11-30T17:16:04.136Z,3.00
2023-11-30T17:18:35.060Z,3.00
2023-11-30T17:21:08.423Z,3.00
2023-11-30T17:23:40.000Z,3.00
2023-11-30T17:26:11.936Z,3.00
2023-11-30T17:28:42.359Z,3.00
2023-11-30T17:31:13.588Z,3.00
2023-11-30T17:33:44.197Z,3.00
2023-11-30T17:36:19.090Z,3.00
2023-11-30T17:38:50.405Z,3.10
2023-11-30T17:41:20.661Z,3.10
2023-11-30T17:43:50.887Z,3.10
2023-11-30T17:46:21.226Z,3.10
2023-11-30T17:48:51.509Z,3.10
2023-11-30T17:51:24.384Z,3.20
2023-11-30T17:53:56.322Z,3.20
2023-11-30T17:56:27.020Z,3.20
2023-11-30T17:58:57.310Z,3.20
2023-11-30T18:01:28.718Z,3.40
2023-11-30T18:03:59.094Z,3.30
2023-11-30T18:06:34.630Z,3.10
2023-11-30T18:09:04.903Z,3.00
2023-11-30T18:11:38.112Z,3.10
2023-11-30T18:14:08.370Z,3.10
2023-11-30T18:16:38.620Z,2.80
2023-11-30T18:19:09.799Z,2.60
2023-11-30T18:21:42.728Z,2.50
2023-11-30T18:24:13.041Z,2.80
2023-11-30T18:26:43.336Z,2.90
2023-11-30T18:29:13.687Z,2.80
2023-11-30T18:31:44.133Z,2.70
2023-11-30T18:34:14.487Z,2.50
2023-11-30T18:36:47.594Z,2.40
2023-11-30T18:39:19.935Z,2.30
2023-11-30T18:41:52.429Z,2.30
2023-11-30T18:44:22.945Z,2.30
2023-11-30T18:46:53.300Z,2.30
2023-11-30T18:49:23.582Z,2.40
2023-11-30T18:51:56.614Z,2.40
2023-11-30T18:54:26.922Z,2.20
2023-11-30T18:56:57.191Z,2.10
2023-11-30T18:59:28.827Z,2.00
2023-11-30T19:01:59.408Z,1.90
2023-11-30T19:04:29.821Z,1.90
2023-11-30T19:07:02.705Z,1.80
2023-11-30T19:09:33.076Z,1.80
2023-11-30T19:12:03.426Z,1.70
2023-11-30T19:14:33.686Z,1.60
2023-11-30T19:17:04.418Z,1.60
2023-11-30T19:19:34.724Z,1.60
2023-11-30T19:22:08.048Z,1.60
2023-11-30T19:24:40.395Z,1.60
2023-11-30T19:27:10.690Z,1.70
2023-11-30T19:29:40.938Z,1.90
2023-11-30T19:32:11.521Z,2.10
2023-11-30T19:34:42.053Z,2.40
2023-11-30T19:37:14.946Z,2.60
2023-11-30T19:39:45.188Z,2.50
2023-11-30T19:42:15.505Z,2.50
2023-11-30T19:44:45.753Z,2.40
2023-11-30T19:47:16.759Z,2.40
2023-11-30T19:49:47.972Z,2.30
2023-11-30T19:52:20.807Z,2.20
2023-11-30T19:54:51.451Z,2.10
2023-11-30T19:57:21.972Z,2.10
2023-11-30T19:59:52.263Z,2.20
2023-11-30T20:02:22.704Z,2.20
2023-11-30T20:04:53.057Z,2.30
2023-11-30T20:07:25.955Z,2.30
2023-11-30T20:09:56.357Z,2.30
2023-11-30T20:12:26.718Z,2.30
2023-11-30T20:14:57.000Z,2.30
2023-11-30T20:17:27.317Z,2.50
2023-11-30T20:19:57.618Z,2.90
2023-11-30T20:22:32.702Z,3.00
2023-11-30T20:25:06.282Z,3.00
2023-11-30T20:27:38.489Z,3.20
2023-11-30T20:30:11.149Z,3.30
2023-11-30T20:32:42.505Z,3.30
2023-11-30T20:35:13.458Z,3.30
2023-11-30T20:37:54.984Z,3.40
2023-11-30T20:40:25.421Z,3.30
2023-11-30T20:42:55.941Z,3.10
2023-11-30T20:45:26.295Z,2.90
2023-11-30T20:47:56.716Z,2.90
2023-11-30T20:50:26.977Z,3.00
2023-11-30T20:53:01.915Z,3.00
2023-11-30T20:55:32.133Z,3.00
2023-11-30T20:58:02.474Z,3.00
2023-11-30T21:00:33.556Z,3.10
2023-11-30T21:03:04.267Z,3.10
2023-11-30T21:05:34.583Z,2.90
2023-11-30T21:08:08.905Z,2.90
2023-11-30T21:10:41.518Z,2.70
2023-11-30T21:13:11.738Z,2.50
2023-11-30T21:15:46.369Z,2.50
2023-11-30T21:18:16.683Z,2.30
2023-11-30T21:20:49.259Z,2.30
2023-11-30T21:23:22.154Z,2.30
2023-11-30T21:25:52.375Z,2.30
2023-11-30T21:28:22.588Z,2.30
2023-11-30T21:30:52.920Z,2.40
2023-11-30T21:33:25.652Z,2.30
2023-11-30T21:35:59.663Z,2.30
2023-11-30T21:38:32.514Z,2.20
2023-11-30T21:41:03.216Z,2.20
2023-11-30T21:43:33.487Z,2.30
2023-11-30T21:46:05.925Z,2.40
2023-11-30T21:48:36.311Z,2.50
2023-11-30T21:51:07.087Z,2.70
2023-11-30T21:53:39.881Z,2.60
2023-11-30T21:56:12.866Z,2.50
2023-11-30T21:58:43.136Z,2.50
2023-11-30T22:01:13.875Z,2.40
2023-11-30T22:03:44.582Z,2.30
2023-11-30T22:06:15.074Z,2.50
2023-11-30T22:08:52.180Z,2.50
2023-11-30T22:11:22.823Z,2.40
2023-11-30T22:13:53.190Z,2.40
2023-11-30T22:16:26.524Z,2.40
2023-11-30T22:19:03.510Z,2.30
2023-11-30T22:21:33.906Z,2.30
2023-11-30T22:24:07.327Z,2.30
2023-11-30T22:26:37.574Z,2.40
2023-11-30T22:29:07.901Z,2.40
2023-11-30T22:31:38.753Z,2.40
2023-11-30T22:34:09.148Z,2.60
2023-11-30T22:36:39.549Z,2.90
2023-11-30T22:39:12.488Z,3.20
2023-11-30T22:41:42.774Z,3.30
2023-11-30T22:44:13.236Z,3.30
2023-11-30T22:46:43.542Z,3.20
2023-11-30T22:49:17.588Z,3.00
2023-11-30T22:51:48.020Z,3.20
2023-11-30T22:54:20.955Z,3.20
2023-11-30T22:56:52.676Z,3.10
2023-11-30T22:59:22.998Z,3.10
2023-11-30T23:01:53.512Z,3.20
2023-11-30T23:04:24.347Z,3.20
2023-11-30T23:06:54.725Z,3.20
2023-11-30T23:09:27.579Z,3.30
2023-11-30T23:11:58.705Z,3.30
2023-11-30T23:14:29.138Z,3.40
2023-11-30T23:16:59.522Z,3.30
2023-11-30T23:19:32.772Z,3.10
2023-11-30T23:22:03.118Z,3.10
2023-11-30T23:24:36.347Z,3.00
2023-11-30T23:27:06.790Z,3.00
2023-11-30T23:29:38.021Z,3.00
2023-11-30T23:32:09.575Z,3.00
2023-11-30T23:34:40.216Z,3.00
2023-11-30T23:37:10.542Z,3.00
2023-11-30T23:39:43.477Z,3.00
2023-11-30T23:42:14.233Z,3.00
2023-11-30T23:44:48.183Z,3.00
2023-11-30T23:47:18.501Z,2.90
2023-11-30T23:49:48.841Z,2.80
2023-11-30T23:52:19.349Z,2.90
2023-11-30T23:54:52.312Z,3.00
2023-11-30T23:57:22.541Z,3.00
2023-11-30T23:59:56.597Z,3.00
